sensor_id;sensor_type;location;lat;lon;timestamp;P1;durP1;ratioP1;P2;durP2;ratioP2
13230;SDS011;6681;53.254;10.398;2022-11-20T00:00:50;11.23;;;6.10;;
13230;SDS011;6681;53.254;10.398;2022-11-20T00:03:16;8.60;;;6.67;;
13230;SDS011;6681;53.254;10.398;2022-11-20T00:05:42;11.20;;;7.23;;
13230;SDS011;6681;53.254;10.398;2022-11-20T00:08:08;9.40;;;6.73;;
13230;SDS011;6681;53.254;10.398;2022-11-20T00:10:37;7.93;;;6.80;;
13230;SDS011;6681;53.254;10.398;2022-11-20T00:13:04;11.73;;;7.90;;
13230;SDS011;6681;53.254;10.398;2022-11-20T00:15:29;7.53;;;6.30;;
13230;SDS011;6681;53.254;10.398;2022-11-20T00:17:55;10.63;;;7.33;;
13230;SDS011;6681;53.254;10.398;2022-11-20T00:20:21;7.77;;;7.00;;
13230;SDS011;6681;53.254;10.398;2022-11-20T00:22:47;9.57;;;6.90;;
13230;SDS011;6681;53.254;10.398;2022-11-20T00:25:13;9.90;;;6.13;;
13230;SDS011;6681;53.254;10.398;2022-11-20T00:27:38;10.00;;;7.87;;
13230;SDS011;6681;53.254;10.398;2022-11-20T00:30:04;10.50;;;7.33;;
13230;SDS011;6681;53.254;10.398;2022-11-20T00:32:31;8.23;;;6.77;;
13230;SDS011;6681;53.254;10.398;2022-11-20T00:34:56;13.00;;;7.73;;
13230;SDS011;6681;53.254;10.398;2022-11-20T00:37:22;9.40;;;7.47;;
13230;SDS011;6681;53.254;10.398;2022-11-20T00:39:47;11.03;;;8.33;;
13230;SDS011;6681;53.254;10.398;2022-11-20T00:42:13;9.20;;;7.67;;
13230;SDS011;6681;53.254;10.398;2022-11-20T00:44:39;10.17;;;7.70;;
13230;SDS011;6681;53.254;10.398;2022-11-20T00:47:04;10.73;;;8.67;;
13230;SDS011;6681;53.254;10.398;2022-11-20T00:49:30;11.80;;;8.10;;
13230;SDS011;6681;53.254;10.398;2022-11-20T00:51:56;12.53;;;8.00;;
13230;SDS011;6681;53.254;10.398;2022-11-20T00:54:21;12.70;;;9.93;;
13230;SDS011;6681;53.254;10.398;2022-11-20T00:56:47;10.13;;;7.93;;
13230;SDS011;6681;53.254;10.398;2022-11-20T00:59:12;9.20;;;7.93;;
13230;SDS011;6681;53.254;10.398;2022-11-20T01:01:38;9.83;;;8.33;;
13230;SDS011;6681;53.254;10.398;2022-11-20T01:04:07;9.10;;;8.17;;
13230;SDS011;6681;53.254;10.398;2022-11-20T01:06:38;10.00;;;8.50;;
13230;SDS011;6681;53.254;10.398;2022-11-20T01:09:05;10.23;;;8.43;;
13230;SDS011;6681;53.254;10.398;2022-11-20T01:11:36;9.83;;;7.97;;
13230;SDS011;6681;53.254;10.398;2022-11-20T01:14:04;13.03;;;8.43;;
13230;SDS011;6681;53.254;10.398;2022-11-20T01:16:36;14.47;;;9.97;;
13230;SDS011;6681;53.254;10.398;2022-11-20T01:19:05;10.73;;;8.97;;
13230;SDS011;6681;53.254;10.398;2022-11-20T01:21:33;12.53;;;8.83;;
13230;SDS011;6681;53.254;10.398;2022-11-20T01:24:01;9.67;;;8.00;;
13230;SDS011;6681;53.254;10.398;2022-11-20T01:26:29;11.90;;;8.87;;
13230;SDS011;6681;53.254;10.398;2022-11-20T01:28:57;22.47;;;8.63;;
13230;SDS011;6681;53.254;10.398;2022-11-20T01:34:00;10.70;;;8.63;;
13230;SDS011;6681;53.254;10.398;2022-11-20T01:36:29;10.27;;;8.50;;
13230;SDS011;6681;53.254;10.398;2022-11-20T01:38:57;12.80;;;8.50;;
13230;SDS011;6681;53.254;10.398;2022-11-20T01:41:27;11.00;;;8.33;;
13230;SDS011;6681;53.254;10.398;2022-11-20T01:44:14;12.50;;;7.70;;
13230;SDS011;6681;53.254;10.398;2022-11-20T01:46:56;13.43;;;8.67;;
13230;SDS011;6681;53.254;10.398;2022-11-20T01:49:47;9.73;;;7.13;;
13230;SDS011;6681;53.254;10.398;2022-11-20T01:52:20;10.57;;;7.70;;
13230;SDS011;6681;53.254;10.398;2022-11-20T01:55:07;9.53;;;8.33;;
13230;SDS011;6681;53.254;10.398;2022-11-20T01:57:46;13.63;;;7.67;;
13230;SDS011;6681;53.254;10.398;2022-11-20T02:00:14;10.57;;;7.63;;
13230;SDS011;6681;53.254;10.398;2022-11-20T02:02:43;9.87;;;8.50;;
13230;SDS011;6681;53.254;10.398;2022-11-20T02:05:35;9.83;;;8.40;;
13230;SDS011;6681;53.254;10.398;2022-11-20T02:08:05;7.90;;;7.10;;
13230;SDS011;6681;53.254;10.398;2022-11-20T02:10:31;10.00;;;7.87;;
13230;SDS011;6681;53.254;10.398;2022-11-20T02:12:58;7.87;;;6.63;;
13230;SDS011;6681;53.254;10.398;2022-11-20T02:15:42;10.60;;;8.30;;
13230;SDS011;6681;53.254;10.398;2022-11-20T02:18:09;9.37;;;8.00;;
13230;SDS011;6681;53.254;10.398;2022-11-20T02:20:36;8.37;;;6.83;;
13230;SDS011;6681;53.254;10.398;2022-11-20T02:23:04;12.27;;;8.40;;
13230;SDS011;6681;53.254;10.398;2022-11-20T02:25:37;12.93;;;8.77;;
13230;SDS011;6681;53.254;10.398;2022-11-20T02:28:04;10.00;;;7.13;;
13230;SDS011;6681;53.254;10.398;2022-11-20T02:30:30;8.70;;;7.10;;
13230;SDS011;6681;53.254;10.398;2022-11-20T02:32:57;9.30;;;7.57;;
13230;SDS011;6681;53.254;10.398;2022-11-20T02:37:49;7.57;;;6.77;;
13230;SDS011;6681;53.254;10.398;2022-11-20T02:40:18;9.03;;;6.43;;
13230;SDS011;6681;53.254;10.398;2022-11-20T02:42:44;10.00;;;7.00;;
13230;SDS011;6681;53.254;10.398;2022-11-20T02:45:09;8.83;;;7.33;;
13230;SDS011;6681;53.254;10.398;2022-11-20T02:47:35;9.50;;;6.73;;
13230;SDS011;6681;53.254;10.398;2022-11-20T02:50:01;8.77;;;7.07;;
13230;SDS011;6681;53.254;10.398;2022-11-20T02:52:27;8.10;;;6.90;;
13230;SDS011;6681;53.254;10.398;2022-11-20T02:54:53;8.87;;;7.07;;
13230;SDS011;6681;53.254;10.398;2022-11-20T02:57:18;8.33;;;6.27;;
13230;SDS011;6681;53.254;10.398;2022-11-20T02:59:44;9.57;;;7.73;;
13230;SDS011;6681;53.254;10.398;2022-11-20T03:02:10;10.33;;;6.90;;
13230;SDS011;6681;53.254;10.398;2022-11-20T03:04:35;9.53;;;7.67;;
13230;SDS011;6681;53.254;10.398;2022-11-20T03:07:01;8.67;;;7.37;;
13230;SDS011;6681;53.254;10.398;2022-11-20T03:09:27;10.57;;;7.40;;
13230;SDS011;6681;53.254;10.398;2022-11-20T03:11:52;10.03;;;7.37;;
13230;SDS011;6681;53.254;10.398;2022-11-20T03:14:18;10.20;;;6.67;;
13230;SDS011;6681;53.254;10.398;2022-11-20T03:16:44;8.63;;;6.63;;
13230;SDS011;6681;53.254;10.398;2022-11-20T03:19:09;7.83;;;6.60;;
13230;SDS011;6681;53.254;10.398;2022-11-20T03:21:36;7.60;;;6.53;;
13230;SDS011;6681;53.254;10.398;2022-11-20T03:24:01;7.17;;;6.40;;
13230;SDS011;6681;53.254;10.398;2022-11-20T03:26:28;7.60;;;6.53;;
13230;SDS011;6681;53.254;10.398;2022-11-20T03:28:57;10.60;;;7.73;;
13230;SDS011;6681;53.254;10.398;2022-11-20T03:31:28;7.70;;;6.93;;
13230;SDS011;6681;53.254;10.398;2022-11-20T03:33:59;8.23;;;6.77;;
13230;SDS011;6681;53.254;10.398;2022-11-20T03:36:25;9.63;;;7.57;;
13230;SDS011;6681;53.254;10.398;2022-11-20T03:38:53;8.93;;;5.97;;
13230;SDS011;6681;53.254;10.398;2022-11-20T03:41:21;11.13;;;6.83;;
13230;SDS011;6681;53.254;10.398;2022-11-20T03:43:52;9.47;;;5.57;;
13230;SDS011;6681;53.254;10.398;2022-11-20T03:46:19;11.97;;;6.63;;
13230;SDS011;6681;53.254;10.398;2022-11-20T03:48:46;8.30;;;6.50;;
13230;SDS011;6681;53.254;10.398;2022-11-20T03:51:13;7.43;;;6.10;;
13230;SDS011;6681;53.254;10.398;2022-11-20T03:53:41;8.27;;;6.53;;
13230;SDS011;6681;53.254;10.398;2022-11-20T03:56:10;7.20;;;6.37;;
13230;SDS011;6681;53.254;10.398;2022-11-20T03:58:37;6.70;;;5.90;;
13230;SDS011;6681;53.254;10.398;2022-11-20T04:03:32;6.67;;;5.97;;
13230;SDS011;6681;53.254;10.398;2022-11-20T04:06:01;8.87;;;6.60;;
13230;SDS011;6681;53.254;10.398;2022-11-20T04:08:28;7.97;;;5.93;;
13230;SDS011;6681;53.254;10.398;2022-11-20T04:10:55;7.17;;;6.47;;
13230;SDS011;6681;53.254;10.398;2022-11-20T04:13:20;7.37;;;5.97;;
13230;SDS011;6681;53.254;10.398;2022-11-20T04:15:46;6.67;;;5.90;;
13230;SDS011;6681;53.254;10.398;2022-11-20T04:18:11;7.07;;;6.17;;
13230;SDS011;6681;53.254;10.398;2022-11-20T04:20:37;6.53;;;5.80;;
13230;SDS011;6681;53.254;10.398;2022-11-20T04:23:03;9.10;;;5.93;;
13230;SDS011;6681;53.254;10.398;2022-11-20T04:25:28;5.23;;;4.63;;
13230;SDS011;6681;53.254;10.398;2022-11-20T04:27:54;7.17;;;6.20;;
13230;SDS011;6681;53.254;10.398;2022-11-20T04:30:20;9.80;;;7.13;;
13230;SDS011;6681;53.254;10.398;2022-11-20T04:32:45;8.37;;;7.03;;
13230;SDS011;6681;53.254;10.398;2022-11-20T04:35:11;10.57;;;5.77;;
13230;SDS011;6681;53.254;10.398;2022-11-20T04:37:36;7.73;;;6.80;;
13230;SDS011;6681;53.254;10.398;2022-11-20T04:40:02;10.90;;;6.50;;
13230;SDS011;6681;53.254;10.398;2022-11-20T04:42:28;9.47;;;6.40;;
13230;SDS011;6681;53.254;10.398;2022-11-20T04:44:54;9.73;;;6.70;;
13230;SDS011;6681;53.254;10.398;2022-11-20T04:47:20;7.97;;;6.60;;
13230;SDS011;6681;53.254;10.398;2022-11-20T04:49:46;9.60;;;6.90;;
13230;SDS011;6681;53.254;10.398;2022-11-20T04:52:12;9.20;;;6.77;;
13230;SDS011;6681;53.254;10.398;2022-11-20T04:54:38;9.00;;;7.53;;
13230;SDS011;6681;53.254;10.398;2022-11-20T04:57:04;8.27;;;6.60;;
13230;SDS011;6681;53.254;10.398;2022-11-20T04:59:29;8.70;;;6.60;;
13230;SDS011;6681;53.254;10.398;2022-11-20T05:01:55;8.27;;;7.43;;
13230;SDS011;6681;53.254;10.398;2022-11-20T05:04:21;9.70;;;7.10;;
13230;SDS011;6681;53.254;10.398;2022-11-20T05:06:50;9.97;;;7.40;;
13230;SDS011;6681;53.254;10.398;2022-11-20T05:09:16;11.53;;;8.10;;
13230;SDS011;6681;53.254;10.398;2022-11-20T05:11:41;8.87;;;7.20;;
13230;SDS011;6681;53.254;10.398;2022-11-20T05:14:13;11.53;;;6.73;;
13230;SDS011;6681;53.254;10.398;2022-11-20T05:16:39;9.17;;;6.80;;
13230;SDS011;6681;53.254;10.398;2022-11-20T05:19:04;9.73;;;7.17;;
13230;SDS011;6681;53.254;10.398;2022-11-20T05:21:30;11.37;;;9.10;;
13230;SDS011;6681;53.254;10.398;2022-11-20T05:23:57;9.87;;;7.33;;
13230;SDS011;6681;53.254;10.398;2022-11-20T05:26:23;9.80;;;7.00;;
13230;SDS011;6681;53.254;10.398;2022-11-20T05:28:49;11.97;;;7.20;;
13230;SDS011;6681;53.254;10.398;2022-11-20T05:31:21;9.13;;;7.57;;
13230;SDS011;6681;53.254;10.398;2022-11-20T05:33:49;11.00;;;7.87;;
13230;SDS011;6681;53.254;10.398;2022-11-20T05:36:15;7.83;;;6.47;;
13230;SDS011;6681;53.254;10.398;2022-11-20T05:38:41;14.40;;;7.70;;
13230;SDS011;6681;53.254;10.398;2022-11-20T05:41:08;9.90;;;7.63;;
13230;SDS011;6681;53.254;10.398;2022-11-20T05:43:36;13.23;;;9.10;;
13230;SDS011;6681;53.254;10.398;2022-11-20T05:46:03;8.67;;;7.03;;
13230;SDS011;6681;53.254;10.398;2022-11-20T05:48:31;14.47;;;9.10;;
13230;SDS011;6681;53.254;10.398;2022-11-20T05:51:01;14.47;;;8.80;;
13230;SDS011;6681;53.254;10.398;2022-11-20T05:53:28;15.37;;;9.53;;
13230;SDS011;6681;53.254;10.398;2022-11-20T05:56:13;11.33;;;9.17;;
13230;SDS011;6681;53.254;10.398;2022-11-20T05:58:40;11.00;;;8.17;;
13230;SDS011;6681;53.254;10.398;2022-11-20T06:01:13;11.87;;;8.63;;
13230;SDS011;6681;53.254;10.398;2022-11-20T06:03:49;11.00;;;9.40;;
13230;SDS011;6681;53.254;10.398;2022-11-20T06:06:16;16.17;;;9.53;;
13230;SDS011;6681;53.254;10.398;2022-11-20T06:08:42;13.87;;;11.70;;
13230;SDS011;6681;53.254;10.398;2022-11-20T06:11:10;13.43;;;10.13;;
13230;SDS011;6681;53.254;10.398;2022-11-20T06:13:37;14.97;;;10.37;;
13230;SDS011;6681;53.254;10.398;2022-11-20T06:16:03;14.67;;;10.77;;
13230;SDS011;6681;53.254;10.398;2022-11-20T06:18:29;13.87;;;12.10;;
13230;SDS011;6681;53.254;10.398;2022-11-20T06:20:59;15.77;;;11.20;;
13230;SDS011;6681;53.254;10.398;2022-11-20T06:23:30;14.50;;;12.33;;
13230;SDS011;6681;53.254;10.398;2022-11-20T06:25:56;15.10;;;11.30;;
13230;SDS011;6681;53.254;10.398;2022-11-20T06:28:23;12.97;;;10.20;;
13230;SDS011;6681;53.254;10.398;2022-11-20T06:30:49;13.33;;;10.03;;
13230;SDS011;6681;53.254;10.398;2022-11-20T06:33:14;11.60;;;9.93;;
13230;SDS011;6681;53.254;10.398;2022-11-20T06:35:40;14.70;;;11.37;;
13230;SDS011;6681;53.254;10.398;2022-11-20T06:38:06;13.90;;;11.40;;
13230;SDS011;6681;53.254;10.398;2022-11-20T06:40:31;12.63;;;10.53;;
13230;SDS011;6681;53.254;10.398;2022-11-20T06:42:57;17.37;;;11.90;;
13230;SDS011;6681;53.254;10.398;2022-11-20T06:45:23;14.83;;;10.57;;
13230;SDS011;6681;53.254;10.398;2022-11-20T06:47:48;19.03;;;11.57;;
13230;SDS011;6681;53.254;10.398;2022-11-20T06:50:14;14.10;;;11.47;;
13230;SDS011;6681;53.254;10.398;2022-11-20T06:52:39;14.10;;;12.10;;
13230;SDS011;6681;53.254;10.398;2022-11-20T06:55:05;17.97;;;13.03;;
13230;SDS011;6681;53.254;10.398;2022-11-20T06:57:31;17.93;;;12.30;;
13230;SDS011;6681;53.254;10.398;2022-11-20T06:59:57;16.67;;;13.10;;
13230;SDS011;6681;53.254;10.398;2022-11-20T07:02:22;14.87;;;11.80;;
13230;SDS011;6681;53.254;10.398;2022-11-20T07:04:48;18.83;;;12.90;;
13230;SDS011;6681;53.254;10.398;2022-11-20T07:07:14;16.00;;;12.10;;
13230;SDS011;6681;53.254;10.398;2022-11-20T07:09:39;16.83;;;11.43;;
13230;SDS011;6681;53.254;10.398;2022-11-20T07:12:05;18.60;;;13.43;;
13230;SDS011;6681;53.254;10.398;2022-11-20T07:14:31;16.93;;;13.77;;
13230;SDS011;6681;53.254;10.398;2022-11-20T07:16:56;16.70;;;12.57;;
13230;SDS011;6681;53.254;10.398;2022-11-20T07:19:22;15.20;;;12.03;;
13230;SDS011;6681;53.254;10.398;2022-11-20T07:21:47;17.43;;;12.37;;
13230;SDS011;6681;53.254;10.398;2022-11-20T07:24:13;16.27;;;12.90;;
13230;SDS011;6681;53.254;10.398;2022-11-20T07:26:39;18.23;;;13.43;;
13230;SDS011;6681;53.254;10.398;2022-11-20T07:29:04;19.07;;;13.70;;
13230;SDS011;6681;53.254;10.398;2022-11-20T07:31:30;17.10;;;11.50;;
13230;SDS011;6681;53.254;10.398;2022-11-20T07:33:55;20.20;;;13.23;;
13230;SDS011;6681;53.254;10.398;2022-11-20T07:36:21;17.93;;;13.13;;
13230;SDS011;6681;53.254;10.398;2022-11-20T07:38:47;19.43;;;12.50;;
13230;SDS011;6681;53.254;10.398;2022-11-20T07:41:12;15.83;;;12.87;;
13230;SDS011;6681;53.254;10.398;2022-11-20T07:43:38;18.33;;;14.33;;
13230;SDS011;6681;53.254;10.398;2022-11-20T07:46:04;18.30;;;14.37;;
13230;SDS011;6681;53.254;10.398;2022-11-20T07:48:29;18.93;;;14.63;;
13230;SDS011;6681;53.254;10.398;2022-11-20T07:50:55;16.60;;;13.20;;
13230;SDS011;6681;53.254;10.398;2022-11-20T07:53:22;17.43;;;13.27;;
13230;SDS011;6681;53.254;10.398;2022-11-20T07:55:50;18.90;;;12.37;;
13230;SDS011;6681;53.254;10.398;2022-11-20T07:58:19;19.10;;;12.70;;
13230;SDS011;6681;53.254;10.398;2022-11-20T08:00:45;18.83;;;13.40;;
13230;SDS011;6681;53.254;10.398;2022-11-20T08:03:11;17.30;;;12.60;;
13230;SDS011;6681;53.254;10.398;2022-11-20T08:05:37;17.97;;;13.63;;
13230;SDS011;6681;53.254;10.398;2022-11-20T08:08:03;17.07;;;13.30;;
13230;SDS011;6681;53.254;10.398;2022-11-20T08:10:29;16.87;;;12.67;;
13230;SDS011;6681;53.254;10.398;2022-11-20T08:12:54;18.30;;;13.83;;
13230;SDS011;6681;53.254;10.398;2022-11-20T08:15:39;20.03;;;14.63;;
13230;SDS011;6681;53.254;10.398;2022-11-20T08:18:11;18.57;;;13.77;;
13230;SDS011;6681;53.254;10.398;2022-11-20T08:20:37;17.23;;;13.43;;
13230;SDS011;6681;53.254;10.398;2022-11-20T08:23:04;18.77;;;13.23;;
13230;SDS011;6681;53.254;10.398;2022-11-20T08:25:31;19.87;;;13.90;;
13230;SDS011;6681;53.254;10.398;2022-11-20T08:27:59;24.77;;;13.40;;
13230;SDS011;6681;53.254;10.398;2022-11-20T08:30:26;19.10;;;14.27;;
13230;SDS011;6681;53.254;10.398;2022-11-20T08:32:52;22.60;;;15.17;;
13230;SDS011;6681;53.254;10.398;2022-11-20T08:35:18;19.03;;;13.43;;
13230;SDS011;6681;53.254;10.398;2022-11-20T08:37:47;15.20;;;12.60;;
13230;SDS011;6681;53.254;10.398;2022-11-20T08:40:14;18.77;;;14.07;;
13230;SDS011;6681;53.254;10.398;2022-11-20T08:42:46;19.37;;;13.50;;
13230;SDS011;6681;53.254;10.398;2022-11-20T08:45:16;15.73;;;12.73;;
13230;SDS011;6681;53.254;10.398;2022-11-20T08:47:51;18.70;;;12.20;;
13230;SDS011;6681;53.254;10.398;2022-11-20T08:50:17;15.80;;;11.20;;
13230;SDS011;6681;53.254;10.398;2022-11-20T08:52:43;12.90;;;11.10;;
13230;SDS011;6681;53.254;10.398;2022-11-20T08:55:09;17.57;;;12.17;;
13230;SDS011;6681;53.254;10.398;2022-11-20T08:57:35;12.40;;;10.73;;
13230;SDS011;6681;53.254;10.398;2022-11-20T09:00:02;14.67;;;10.87;;
13230;SDS011;6681;53.254;10.398;2022-11-20T09:02:29;18.33;;;12.07;;
13230;SDS011;6681;53.254;10.398;2022-11-20T09:04:55;14.67;;;9.43;;
13230;SDS011;6681;53.254;10.398;2022-11-20T09:07:20;14.83;;;10.80;;
13230;SDS011;6681;53.254;10.398;2022-11-20T09:09:46;14.57;;;10.23;;
13230;SDS011;6681;53.254;10.398;2022-11-20T09:12:12;12.57;;;8.53;;
13230;SDS011;6681;53.254;10.398;2022-11-20T09:14:38;12.33;;;8.50;;
13230;SDS011;6681;53.254;10.398;2022-11-20T09:17:04;12.63;;;8.83;;
13230;SDS011;6681;53.254;10.398;2022-11-20T09:19:29;15.00;;;8.23;;
13230;SDS011;6681;53.254;10.398;2022-11-20T09:21:55;10.13;;;7.40;;
13230;SDS011;6681;53.254;10.398;2022-11-20T09:24:21;12.80;;;7.63;;
13230;SDS011;6681;53.254;10.398;2022-11-20T09:26:46;8.97;;;7.60;;
13230;SDS011;6681;53.254;10.398;2022-11-20T09:29:12;12.13;;;8.03;;
13230;SDS011;6681;53.254;10.398;2022-11-20T09:31:38;9.53;;;7.37;;
13230;SDS011;6681;53.254;10.398;2022-11-20T09:34:03;13.00;;;9.43;;
13230;SDS011;6681;53.254;10.398;2022-11-20T09:36:29;16.63;;;9.23;;
13230;SDS011;6681;53.254;10.398;2022-11-20T09:38:55;9.20;;;7.33;;
13230;SDS011;6681;53.254;10.398;2022-11-20T09:47:01;12.10;;;10.07;;
13230;SDS011;6681;53.254;10.398;2022-11-20T09:50:07;11.30;;;9.20;;
13230;SDS011;6681;53.254;10.398;2022-11-20T09:55:48;13.03;;;9.70;;
13230;SDS011;6681;53.254;10.398;2022-11-20T09:58:33;15.57;;;11.53;;
13230;SDS011;6681;53.254;10.398;2022-11-20T10:01:18;13.57;;;11.27;;
13230;SDS011;6681;53.254;10.398;2022-11-20T10:06:50;15.50;;;10.57;;
13230;SDS011;6681;53.254;10.398;2022-11-20T10:09:34;11.43;;;9.30;;
13230;SDS011;6681;53.254;10.398;2022-11-20T10:14:54;13.97;;;10.03;;
13230;SDS011;6681;53.254;10.398;2022-11-20T10:23:44;11.90;;;8.33;;
13230;SDS011;6681;53.254;10.398;2022-11-20T10:26:22;10.07;;;8.57;;
13230;SDS011;6681;53.254;10.398;2022-11-20T10:29:09;8.90;;;7.93;;
13230;SDS011;6681;53.254;10.398;2022-11-20T10:31:36;10.47;;;8.33;;
13230;SDS011;6681;53.254;10.398;2022-11-20T10:36:46;11.90;;;8.20;;
13230;SDS011;6681;53.254;10.398;2022-11-20T10:41:53;13.33;;;10.27;;
13230;SDS011;6681;53.254;10.398;2022-11-20T10:44:21;13.33;;;9.70;;
13230;SDS011;6681;53.254;10.398;2022-11-20T10:47:18;11.87;;;9.17;;
13230;SDS011;6681;53.254;10.398;2022-11-20T10:49:51;10.13;;;7.50;;
13230;SDS011;6681;53.254;10.398;2022-11-20T11:00:39;9.33;;;8.30;;
13230;SDS011;6681;53.254;10.398;2022-11-20T11:03:14;10.97;;;8.37;;
13230;SDS011;6681;53.254;10.398;2022-11-20T11:08:34;10.53;;;8.77;;
13230;SDS011;6681;53.254;10.398;2022-11-20T11:11:17;9.73;;;8.57;;
13230;SDS011;6681;53.254;10.398;2022-11-20T11:13:48;10.13;;;8.30;;
13230;SDS011;6681;53.254;10.398;2022-11-20T11:16:25;10.40;;;7.93;;
13230;SDS011;6681;53.254;10.398;2022-11-20T11:18:52;11.20;;;8.90;;
13230;SDS011;6681;53.254;10.398;2022-11-20T11:21:29;9.63;;;7.90;;
13230;SDS011;6681;53.254;10.398;2022-11-20T11:24:02;11.17;;;8.13;;
13230;SDS011;6681;53.254;10.398;2022-11-20T11:26:29;8.93;;;7.53;;
13230;SDS011;6681;53.254;10.398;2022-11-20T11:31:25;9.97;;;7.67;;
13230;SDS011;6681;53.254;10.398;2022-11-20T11:34:05;9.53;;;7.40;;
13230;SDS011;6681;53.254;10.398;2022-11-20T11:36:32;8.60;;;7.57;;
13230;SDS011;6681;53.254;10.398;2022-11-20T11:38:59;6.50;;;5.40;;
13230;SDS011;6681;53.254;10.398;2022-11-20T11:41:28;9.23;;;6.70;;
13230;SDS011;6681;53.254;10.398;2022-11-20T11:43:58;7.10;;;6.27;;
13230;SDS011;6681;53.254;10.398;2022-11-20T11:46:52;7.27;;;6.10;;
13230;SDS011;6681;53.254;10.398;2022-11-20T11:49:20;6.60;;;5.90;;
13230;SDS011;6681;53.254;10.398;2022-11-20T11:57:23;5.67;;;5.03;;
13230;SDS011;6681;53.254;10.398;2022-11-20T12:00:10;6.83;;;5.03;;
13230;SDS011;6681;53.254;10.398;2022-11-20T12:05:24;6.23;;;5.63;;
13230;SDS011;6681;53.254;10.398;2022-11-20T12:14:00;8.10;;;5.20;;
13230;SDS011;6681;53.254;10.398;2022-11-20T12:16:30;6.67;;;4.60;;
13230;SDS011;6681;53.254;10.398;2022-11-20T12:19:00;5.50;;;4.07;;
13230;SDS011;6681;53.254;10.398;2022-11-20T12:21:36;5.80;;;5.10;;
13230;SDS011;6681;53.254;10.398;2022-11-20T12:37:44;9.53;;;5.23;;
13230;SDS011;6681;53.254;10.398;2022-11-20T12:43:06;7.30;;;5.50;;
13230;SDS011;6681;53.254;10.398;2022-11-20T12:49:08;6.63;;;5.87;;
13230;SDS011;6681;53.254;10.398;2022-11-20T12:54:53;5.80;;;5.20;;
13230;SDS011;6681;53.254;10.398;2022-11-20T13:08:20;8.23;;;6.07;;
13230;SDS011;6681;53.254;10.398;2022-11-20T13:13:33;6.43;;;5.70;;
13230;SDS011;6681;53.254;10.398;2022-11-20T13:18:44;6.40;;;5.23;;
13230;SDS011;6681;53.254;10.398;2022-11-20T13:21:35;5.53;;;4.93;;
13230;SDS011;6681;53.254;10.398;2022-11-20T13:26:43;6.50;;;5.27;;
13230;SDS011;6681;53.254;10.398;2022-11-20T13:29:18;6.30;;;4.80;;
13230;SDS011;6681;53.254;10.398;2022-11-20T13:31:45;8.40;;;5.63;;
13230;SDS011;6681;53.254;10.398;2022-11-20T13:34:33;5.70;;;4.97;;
13230;SDS011;6681;53.254;10.398;2022-11-20T13:36:59;5.80;;;5.17;;
13230;SDS011;6681;53.254;10.398;2022-11-20T13:39:35;6.33;;;5.53;;
13230;SDS011;6681;53.254;10.398;2022-11-20T13:42:35;5.57;;;5.07;;
13230;SDS011;6681;53.254;10.398;2022-11-20T13:44:54;6.63;;;5.77;;
13230;SDS011;6681;53.254;10.398;2022-11-20T13:47:21;5.93;;;5.30;;
13230;SDS011;6681;53.254;10.398;2022-11-20T13:49:51;5.77;;;5.27;;
13230;SDS011;6681;53.254;10.398;2022-11-20T14:00:32;4.93;;;4.43;;
13230;SDS011;6681;53.254;10.398;2022-11-20T14:05:55;4.90;;;4.50;;
13230;SDS011;6681;53.254;10.398;2022-11-20T14:08:31;4.27;;;3.87;;
13230;SDS011;6681;53.254;10.398;2022-11-20T14:11:04;5.17;;;4.60;;
13230;SDS011;6681;53.254;10.398;2022-11-20T14:13:37;4.43;;;4.00;;
13230;SDS011;6681;53.254;10.398;2022-11-20T14:16:03;5.37;;;4.30;;
13230;SDS011;6681;53.254;10.398;2022-11-20T14:18:28;6.77;;;4.17;;
13230;SDS011;6681;53.254;10.398;2022-11-20T14:20:54;5.00;;;4.13;;
13230;SDS011;6681;53.254;10.398;2022-11-20T14:23:27;5.23;;;4.73;;
13230;SDS011;6681;53.254;10.398;2022-11-20T14:25:53;5.37;;;4.77;;
13230;SDS011;6681;53.254;10.398;2022-11-20T14:28:24;5.30;;;4.80;;
13230;SDS011;6681;53.254;10.398;2022-11-20T14:30:51;9.67;;;8.67;;
13230;SDS011;6681;53.254;10.398;2022-11-20T14:33:17;10.50;;;9.37;;
13230;SDS011;6681;53.254;10.398;2022-11-20T14:35:48;10.07;;;9.07;;
13230;SDS011;6681;53.254;10.398;2022-11-20T14:38:16;9.13;;;8.43;;
13230;SDS011;6681;53.254;10.398;2022-11-20T14:40:45;7.70;;;6.97;;
13230;SDS011;6681;53.254;10.398;2022-11-20T14:43:22;8.20;;;7.37;;
13230;SDS011;6681;53.254;10.398;2022-11-20T14:45:59;7.73;;;6.97;;
13230;SDS011;6681;53.254;10.398;2022-11-20T14:48:37;7.27;;;6.10;;
13230;SDS011;6681;53.254;10.398;2022-11-20T14:51:29;11.80;;;8.83;;
13230;SDS011;6681;53.254;10.398;2022-11-20T14:54:14;9.90;;;8.57;;
13230;SDS011;6681;53.254;10.398;2022-11-20T14:56:41;8.53;;;6.87;;
13230;SDS011;6681;53.254;10.398;2022-11-20T14:59:22;8.20;;;6.73;;
13230;SDS011;6681;53.254;10.398;2022-11-20T15:02:03;11.47;;;9.70;;
13230;SDS011;6681;53.254;10.398;2022-11-20T15:04:30;8.40;;;7.33;;
13230;SDS011;6681;53.254;10.398;2022-11-20T15:06:56;8.10;;;7.27;;
13230;SDS011;6681;53.254;10.398;2022-11-20T15:09:23;15.17;;;8.87;;
13230;SDS011;6681;53.254;10.398;2022-11-20T15:12:02;13.03;;;9.03;;
13230;SDS011;6681;53.254;10.398;2022-11-20T15:14:29;15.33;;;11.27;;
13230;SDS011;6681;53.254;10.398;2022-11-20T15:16:57;14.10;;;10.93;;
13230;SDS011;6681;53.254;10.398;2022-11-20T15:19:25;12.97;;;10.60;;
13230;SDS011;6681;53.254;10.398;2022-11-20T15:21:51;10.20;;;9.20;;
13230;SDS011;6681;53.254;10.398;2022-11-20T15:24:17;11.17;;;7.93;;
13230;SDS011;6681;53.254;10.398;2022-11-20T15:26:43;8.43;;;7.63;;
13230;SDS011;6681;53.254;10.398;2022-11-20T15:29:10;5.63;;;5.03;;
13230;SDS011;6681;53.254;10.398;2022-11-20T15:31:38;5.93;;;5.33;;
13230;SDS011;6681;53.254;10.398;2022-11-20T15:34:13;8.03;;;7.23;;
13230;SDS011;6681;53.254;10.398;2022-11-20T15:36:40;5.80;;;5.20;;
13230;SDS011;6681;53.254;10.398;2022-11-20T15:39:07;8.17;;;6.00;;
13230;SDS011;6681;53.254;10.398;2022-11-20T15:41:34;7.17;;;6.20;;
13230;SDS011;6681;53.254;10.398;2022-11-20T15:44:01;8.87;;;7.20;;
13230;SDS011;6681;53.254;10.398;2022-11-20T15:46:31;8.83;;;7.27;;
13230;SDS011;6681;53.254;10.398;2022-11-20T15:49:02;7.63;;;6.53;;
13230;SDS011;6681;53.254;10.398;2022-11-20T15:51:38;7.30;;;5.87;;
13230;SDS011;6681;53.254;10.398;2022-11-20T15:54:14;9.20;;;7.63;;
13230;SDS011;6681;53.254;10.398;2022-11-20T15:56:43;7.27;;;6.57;;
13230;SDS011;6681;53.254;10.398;2022-11-20T15:59:08;7.57;;;6.80;;
13230;SDS011;6681;53.254;10.398;2022-11-20T16:01:34;9.87;;;8.13;;
13230;SDS011;6681;53.254;10.398;2022-11-20T16:04:00;15.53;;;9.43;;
13230;SDS011;6681;53.254;10.398;2022-11-20T16:06:26;9.33;;;8.07;;
13230;SDS011;6681;53.254;10.398;2022-11-20T16:08:51;13.17;;;10.43;;
13230;SDS011;6681;53.254;10.398;2022-11-20T16:11:17;14.33;;;12.53;;
13230;SDS011;6681;53.254;10.398;2022-11-20T16:13:43;14.17;;;10.30;;
13230;SDS011;6681;53.254;10.398;2022-11-20T16:16:31;18.10;;;12.17;;
13230;SDS011;6681;53.254;10.398;2022-11-20T16:19:02;11.63;;;10.47;;
13230;SDS011;6681;53.254;10.398;2022-11-20T16:21:28;12.73;;;11.43;;
13230;SDS011;6681;53.254;10.398;2022-11-20T16:23:59;12.57;;;11.00;;
13230;SDS011;6681;53.254;10.398;2022-11-20T16:26:26;12.43;;;10.30;;
13230;SDS011;6681;53.254;10.398;2022-11-20T16:28:53;12.30;;;11.03;;
13230;SDS011;6681;53.254;10.398;2022-11-20T16:31:19;12.63;;;9.60;;
13230;SDS011;6681;53.254;10.398;2022-11-20T16:33:49;11.80;;;10.00;;
13230;SDS011;6681;53.254;10.398;2022-11-20T16:36:16;11.30;;;9.63;;
13230;SDS011;6681;53.254;10.398;2022-11-20T16:38:42;11.80;;;9.53;;
13230;SDS011;6681;53.254;10.398;2022-11-20T16:41:08;11.47;;;10.27;;
13230;SDS011;6681;53.254;10.398;2022-11-20T16:46:34;10.77;;;9.60;;